createdAt,value
2017-05-18T00:01:01.508Z,97.90
2017-05-18T00:03:30.023Z,98.10
2017-05-18T00:05:58.536Z,98.10
2017-05-18T00:08:27.087Z,98.10
2017-05-18T00:10:55.597Z,98.50
2017-05-18T00:13:24.446Z,98.70
2017-05-18T00:15:53.001Z,98.70
2017-05-18T00:18:21.510Z,98.60
2017-05-18T00:20:50.032Z,99.00
2017-05-18T00:23:18.585Z,98.90
2017-05-18T00:25:47.093Z,99.30
2017-05-18T00:28:15.605Z,99.50
2017-05-18T00:30:44.145Z,99.90
2017-05-18T00:33:12.656Z,99.90
2017-05-18T00:35:41.168Z,99.90
2017-05-18T00:38:09.709Z,99.90
2017-05-18T00:40:38.223Z,99.90
2017-05-18T00:43:06.737Z,99.90
2017-05-18T00:45:35.293Z,99.90
2017-05-18T00:48:03.797Z,99.90
2017-05-18T00:50:32.303Z,99.90
2017-05-18T00:53:00.853Z,99.90
2017-05-18T00:55:29.366Z,99.90
2017-05-18T00:57:57.886Z,99.90
2017-05-18T01:00:26.477Z,99.90
2017-05-18T01:02:54.989Z,99.90
2017-05-18T01:05:23.499Z,99.90
2017-05-18T01:07:52.051Z,99.90
2017-05-18T01:10:20.569Z,99.90
2017-05-18T01:12:49.082Z,99.90
2017-05-18T01:15:17.636Z,99.90
2017-05-18T01:17:46.136Z,99.90
2017-05-18T01:20:14.644Z,99.90
2017-05-18T01:22:43.196Z,99.90
2017-05-18T01:25:11.700Z,99.90
2017-05-18T01:27:40.212Z,99.90
2017-05-18T01:30:08.764Z,99.90
2017-05-18T01:32:37.291Z,99.90
2017-05-18T01:35:05.845Z,99.90
2017-05-18T01:37:34.401Z,99.90
2017-05-18T01:40:02.907Z,99.90
2017-05-18T01:42:31.420Z,99.90
2017-05-18T01:45:00.152Z,99.90
2017-05-18T01:47:28.689Z,99.90
2017-05-18T01:49:57.205Z,99.90
2017-05-18T01:52:25.759Z,99.90
2017-05-18T01:54:54.270Z,99.90
2017-05-18T01:57:22.776Z,99.90
2017-05-18T01:59:51.325Z,99.90
2017-05-18T02:02:19.833Z,99.90
2017-05-18T02:04:48.388Z,99.90
2017-05-18T02:07:16.955Z,99.90
2017-05-18T02:09:45.456Z,99.90
2017-05-18T02:12:13.964Z,99.90
2017-05-18T02:14:42.519Z,99.90
2017-05-18T02:17:11.035Z,99.90
2017-05-18T02:19:39.548Z,99.90
2017-05-18T02:22:11.842Z,99.90
2017-05-18T02:24:40.355Z,99.90
2017-05-18T02:27:08.859Z,99.90
2017-05-18T02:29:37.408Z,99.90
2017-05-18T02:32:05.917Z,99.90
2017-05-18T02:34:34.428Z,99.90
2017-05-18T02:37:02.981Z,99.90
2017-05-18T02:39:31.498Z,99.90
2017-05-18T02:42:00.024Z,99.90
2017-05-18T02:44:28.592Z,99.90
2017-05-18T02:46:57.099Z,99.90
2017-05-18T02:49:25.600Z,99.90
2017-05-18T02:51:54.153Z,99.90
2017-05-18T02:54:22.667Z,99.90
2017-05-18T02:56:51.168Z,99.90
2017-05-18T02:59:19.745Z,99.90
2017-05-18T03:01:48.245Z,99.90
2017-05-18T03:04:16.747Z,99.90
2017-05-18T03:06:45.296Z,99.90
2017-05-18T03:09:13.800Z,99.90
2017-05-18T03:11:42.309Z,99.90
2017-05-18T03:14:10.864Z,99.90
2017-05-18T03:16:39.378Z,99.90
2017-05-18T03:19:07.888Z,99.90
2017-05-18T03:21:36.449Z,99.90
2017-05-18T03:24:04.952Z,99.90
2017-05-18T03:26:33.470Z,99.90
2017-05-18T03:29:02.013Z,99.90
2017-05-18T03:31:30.519Z,99.90
2017-05-18T03:33:59.032Z,99.90
2017-05-18T03:36:27.581Z,99.90
2017-05-18T03:38:56.091Z,99.90
2017-05-18T03:41:24.601Z,99.90
2017-05-18T03:43:53.149Z,99.90
2017-05-18T03:46:21.692Z,99.90
2017-05-18T03:48:50.200Z,99.90
2017-05-18T03:51:18.744Z,99.90
2017-05-18T03:53:47.268Z,98.40
2017-05-18T03:56:15.780Z,94.00
2017-05-18T03:58:44.345Z,86.70
2017-05-18T04:01:12.859Z,78.60
2017-05-18T04:03:41.367Z,73.70
2017-05-18T04:06:10.172Z,77.50
2017-05-18T04:08:38.692Z,83.80
2017-05-18T04:11:07.201Z,90.80
2017-05-18T04:13:35.781Z,92.20
2017-05-18T04:16:04.295Z,90.10
2017-05-18T04:18:32.809Z,78.00
2017-05-18T04:21:01.368Z,70.20
2017-05-18T04:23:29.880Z,64.70
2017-05-18T04:25:58.392Z,62.00
2017-05-18T04:28:26.956Z,58.90
2017-05-18T04:30:55.469Z,55.00
2017-05-18T04:33:23.978Z,54.20
2017-05-18T04:35:52.528Z,53.80
2017-05-18T04:38:21.037Z,52.30
2017-05-18T04:40:49.540Z,50.40
2017-05-18T04:43:18.106Z,48.20
2017-05-18T04:45:46.607Z,48.50
2017-05-18T04:48:15.114Z,49.70
2017-05-18T04:50:43.687Z,50.00
2017-05-18T04:53:12.195Z,50.20
2017-05-18T04:55:40.700Z,50.10
2017-05-18T04:58:09.243Z,48.50
2017-05-18T05:00:37.753Z,49.50
2017-05-18T05:03:06.264Z,50.10
2017-05-18T05:05:34.819Z,48.10
2017-05-18T05:08:03.323Z,48.20
2017-05-18T05:10:31.830Z,45.90
2017-05-18T05:13:00.376Z,43.40
2017-05-18T05:15:28.892Z,39.30
2017-05-18T05:17:57.400Z,38.80
2017-05-18T05:20:25.948Z,37.90
2017-05-18T05:22:54.453Z,35.40
2017-05-18T05:25:22.955Z,34.90
2017-05-18T05:27:51.500Z,35.20
2017-05-18T05:30:20.008Z,32.90
2017-05-18T05:32:48.518Z,33.00
2017-05-18T05:35:17.071Z,33.00
2017-05-18T05:37:45.572Z,31.30
2017-05-18T05:40:14.085Z,29.10
2017-05-18T05:42:42.679Z,28.60
2017-05-18T05:45:11.183Z,27.90
2017-05-18T05:47:39.710Z,28.20
2017-05-18T05:50:08.262Z,27.20
2017-05-18T05:52:36.769Z,27.20
2017-05-18T05:55:05.278Z,27.60
2017-05-18T05:57:33.872Z,27.00
2017-05-18T06:00:02.385Z,25.70
2017-05-18T06:02:30.891Z,26.40
2017-05-18T06:04:59.438Z,25.80
2017-05-18T06:07:27.947Z,23.90
2017-05-18T06:09:56.475Z,23.40
2017-05-18T06:12:25.142Z,23.60
2017-05-18T06:14:53.661Z,23.50
2017-05-18T06:17:22.169Z,23.20
2017-05-18T06:19:50.721Z,22.10
2017-05-18T06:22:19.236Z,22.00
2017-05-18T06:24:47.750Z,20.40
2017-05-18T06:27:16.301Z,20.40
2017-05-18T06:29:44.851Z,19.50
2017-05-18T06:32:13.384Z,18.90
2017-05-18T06:34:41.936Z,19.90
2017-05-18T06:37:10.448Z,20.10
2017-05-18T06:39:38.977Z,20.60
2017-05-18T06:42:07.533Z,21.00
2017-05-18T06:44:36.048Z,20.10
2017-05-18T06:47:04.570Z,21.20
2017-05-18T06:49:33.135Z,21.90
2017-05-18T06:52:01.644Z,22.90
2017-05-18T06:54:30.173Z,24.60
2017-05-18T06:56:58.730Z,26.50
2017-05-18T06:59:27.249Z,26.20
2017-05-18T07:01:55.755Z,24.00
2017-05-18T07:04:24.312Z,20.80
2017-05-18T07:06:52.829Z,20.40
2017-05-18T07:09:21.338Z,19.90
2017-05-18T07:11:49.897Z,19.70
2017-05-18T07:14:18.409Z,19.60
2017-05-18T07:16:46.921Z,19.70
2017-05-18T07:19:15.476Z,18.20
2017-05-18T07:21:43.989Z,18.10
2017-05-18T07:24:12.505Z,17.10
2017-05-18T07:26:41.074Z,16.60
2017-05-18T07:29:09.589Z,17.10
2017-05-18T07:31:38.097Z,17.90
2017-05-18T07:34:06.650Z,18.10
2017-05-18T07:36:35.197Z,19.40
2017-05-18T07:39:03.739Z,20.00
2017-05-18T07:41:32.285Z,19.70
2017-05-18T07:44:00.792Z,18.90
2017-05-18T07:46:29.301Z,18.50
2017-05-18T07:48:57.849Z,19.00
2017-05-18T07:51:26.359Z,18.10
2017-05-18T07:53:54.870Z,18.10
2017-05-18T07:56:23.439Z,17.90
2017-05-18T07:58:51.944Z,16.60
2017-05-18T08:01:20.452Z,16.50
2017-05-18T08:03:49.009Z,16.20
2017-05-18T08:06:17.516Z,16.40
2017-05-18T08:08:46.025Z,17.40
2017-05-18T08:11:14.581Z,16.80
2017-05-18T08:13:43.089Z,18.20
2017-05-18T08:16:11.598Z,19.30
2017-05-18T08:18:40.157Z,18.80
2017-05-18T08:21:08.659Z,18.60
2017-05-18T08:23:37.181Z,18.50
2017-05-18T08:26:05.737Z,17.50
2017-05-18T08:28:34.245Z,17.00
2017-05-18T08:31:02.744Z,16.20
2017-05-18T08:33:31.300Z,16.60
2017-05-18T08:35:59.809Z,16.50
2017-05-18T08:38:28.324Z,16.60
2017-05-18T08:40:56.865Z,14.50
2017-05-18T08:43:25.369Z,15.00
2017-05-18T08:45:53.883Z,15.10
2017-05-18T08:48:22.428Z,16.70
2017-05-18T08:50:50.928Z,16.90
2017-05-18T08:53:19.438Z,15.90
2017-05-18T08:55:47.981Z,16.20
2017-05-18T08:58:16.485Z,15.00
2017-05-18T09:00:44.984Z,15.90
2017-05-18T09:03:13.532Z,16.60
2017-05-18T09:05:42.027Z,16.40
2017-05-18T09:08:10.536Z,15.50
2017-05-18T09:10:39.080Z,16.10
2017-05-18T09:13:07.586Z,15.90
2017-05-18T09:15:36.088Z,17.40
2017-05-18T09:18:04.629Z,19.20
2017-05-18T09:20:33.129Z,18.70
2017-05-18T09:23:01.640Z,17.00
2017-05-18T09:25:30.187Z,18.20
2017-05-18T09:27:58.700Z,20.00
2017-05-18T09:32:56.336Z,24.10
2017-05-18T09:35:24.841Z,24.20
2017-05-18T09:37:53.342Z,25.60
2017-05-18T09:40:21.900Z,26.10
2017-05-18T09:42:50.401Z,26.20
2017-05-18T09:45:18.904Z,26.80
2017-05-18T09:47:47.469Z,27.80
2017-05-18T09:50:15.973Z,26.90
2017-05-18T09:52:44.482Z,27.50
2017-05-18T09:55:13.028Z,27.20
2017-05-18T09:57:41.537Z,25.60
2017-05-18T10:00:10.036Z,26.90
2017-05-18T10:02:38.589Z,27.10
2017-05-18T10:05:07.092Z,27.90
2017-05-18T10:07:35.592Z,29.30
2017-05-18T10:10:04.135Z,28.60
2017-05-18T10:12:32.637Z,29.00
2017-05-18T10:15:01.140Z,28.50
2017-05-18T10:17:29.687Z,28.70
2017-05-18T10:19:58.189Z,29.10
2017-05-18T10:22:26.697Z,28.50
2017-05-18T10:24:55.241Z,28.90
2017-05-18T10:27:23.747Z,29.50
2017-05-18T10:29:52.250Z,28.20
2017-05-18T10:32:20.798Z,28.50
2017-05-18T10:34:49.305Z,27.80
2017-05-18T10:37:17.805Z,28.00
2017-05-18T10:39:46.352Z,28.00
2017-05-18T10:42:14.853Z,28.80
2017-05-18T10:44:43.355Z,28.10
2017-05-18T10:47:11.902Z,28.70
2017-05-18T10:49:40.404Z,29.10
2017-05-18T10:52:08.920Z,29.20
2017-05-18T10:54:37.462Z,30.40
2017-05-18T10:57:05.965Z,29.40
2017-05-18T10:59:34.468Z,30.00
2017-05-18T11:02:03.011Z,31.20
2017-05-18T11:04:31.502Z,30.70
2017-05-18T11:07:00.008Z,31.10
2017-05-18T11:09:28.576Z,30.70
2017-05-18T11:11:57.076Z,31.20
2017-05-18T11:14:25.576Z,31.30
2017-05-18T11:16:54.116Z,31.90
2017-05-18T11:19:22.625Z,32.60
2017-05-18T11:21:51.123Z,33.40
2017-05-18T11:24:19.664Z,32.30
2017-05-18T11:26:48.170Z,32.50
2017-05-18T11:29:16.672Z,32.80
2017-05-18T11:31:45.218Z,32.40
2017-05-18T11:34:13.724Z,31.00
2017-05-18T11:36:42.247Z,31.50
2017-05-18T11:39:10.797Z,31.50
2017-05-18T11:41:39.308Z,31.50
2017-05-18T11:44:07.808Z,31.40
2017-05-18T11:46:36.401Z,31.10
2017-05-18T11:49:04.951Z,32.20
2017-05-18T11:51:33.449Z,32.10
2017-05-18T11:54:02.026Z,31.50
2017-05-18T11:56:30.533Z,31.60
2017-05-18T11:58:59.040Z,30.70
2017-05-18T12:01:27.577Z,31.50
2017-05-18T12:03:56.075Z,31.10
2017-05-18T12:06:24.572Z,31.20
2017-05-18T12:08:53.120Z,31.30
2017-05-18T12:11:21.636Z,32.50
2017-05-18T12:13:50.136Z,31.50
2017-05-18T12:16:18.673Z,29.70
2017-05-18T12:18:47.302Z,31.30
2017-05-18T12:21:15.810Z,29.70
2017-05-18T12:23:44.356Z,30.30
2017-05-18T12:26:12.859Z,30.40
2017-05-18T12:28:41.361Z,30.00
2017-05-18T12:31:09.899Z,31.10
2017-05-18T12:33:38.402Z,29.70
2017-05-18T12:36:06.913Z,30.90
2017-05-18T12:38:35.481Z,29.40
2017-05-18T12:41:03.983Z,29.10
2017-05-18T12:43:32.492Z,29.70
2017-05-18T12:46:01.057Z,29.40
2017-05-18T12:48:29.552Z,29.20
2017-05-18T12:50:58.049Z,29.60
2017-05-18T12:53:26.593Z,29.80
2017-05-18T12:55:55.097Z,29.50
2017-05-18T12:58:23.597Z,29.20
2017-05-18T13:00:52.141Z,31.10
2017-05-18T13:03:20.637Z,30.00
2017-05-18T13:05:49.136Z,29.90
2017-05-18T13:08:17.676Z,29.10
2017-05-18T13:10:46.185Z,29.40
2017-05-18T13:13:14.680Z,28.90
2017-05-18T13:15:43.235Z,29.20
2017-05-18T13:18:11.736Z,29.50
2017-05-18T13:20:40.236Z,28.80
2017-05-18T13:23:08.794Z,28.80
2017-05-18T13:25:37.292Z,29.90
2017-05-18T13:28:05.790Z,28.80
2017-05-18T13:30:34.337Z,28.90
2017-05-18T13:33:02.836Z,29.20
2017-05-18T13:35:31.338Z,29.30
2017-05-18T13:37:59.881Z,29.80
2017-05-18T13:40:28.388Z,29.50
2017-05-18T13:42:56.886Z,29.20
2017-05-18T13:45:25.428Z,29.50
2017-05-18T13:47:53.929Z,29.50
2017-05-18T13:50:22.428Z,30.00
2017-05-18T13:52:50.967Z,29.60
2017-05-18T13:55:19.461Z,29.80
2017-05-18T13:57:47.964Z,29.80
2017-05-18T14:00:16.508Z,29.50
2017-05-18T14:02:45.008Z,29.40
2017-05-18T14:05:13.504Z,30.00
2017-05-18T14:07:42.077Z,30.60
2017-05-18T14:10:10.599Z,29.70
2017-05-18T14:12:39.099Z,30.20
2017-05-18T14:15:07.636Z,29.80
2017-05-18T14:17:36.145Z,30.40
2017-05-18T14:20:04.648Z,29.70
2017-05-18T14:22:33.187Z,29.30
2017-05-18T14:25:01.688Z,29.80
2017-05-18T14:27:30.192Z,29.70
2017-05-18T14:29:58.770Z,29.90
2017-05-18T14:32:27.268Z,29.30
2017-05-18T14:34:55.777Z,29.40
2017-05-18T14:37:24.311Z,29.30
2017-05-18T14:39:52.809Z,29.20
2017-05-18T14:42:21.319Z,28.70
2017-05-18T14:44:49.857Z,29.10
2017-05-18T14:47:18.356Z,28.40
2017-05-18T14:49:46.858Z,28.80
2017-05-18T14:52:15.450Z,28.30
2017-05-18T14:54:43.975Z,29.10
2017-05-18T14:57:12.484Z,29.60
2017-05-18T14:59:41.025Z,29.30
2017-05-18T15:02:09.524Z,29.60
2017-05-18T15:04:38.025Z,29.40
2017-05-18T15:07:06.569Z,30.10
2017-05-18T15:09:35.086Z,29.10
2017-05-18T15:12:03.588Z,28.70
2017-05-18T15:14:32.138Z,29.30
2017-05-18T15:17:00.635Z,29.10
2017-05-18T15:19:29.146Z,28.40
2017-05-18T15:21:57.689Z,28.70
2017-05-18T15:24:26.191Z,28.80
2017-05-18T15:26:54.705Z,29.40
2017-05-18T15:29:23.257Z,29.00
2017-05-18T15:31:51.760Z,28.60
2017-05-18T15:34:20.276Z,29.20
2017-05-18T15:36:48.824Z,29.60
2017-05-18T15:39:17.329Z,29.30
2017-05-18T15:41:45.832Z,29.50
2017-05-18T15:44:14.381Z,29.70
2017-05-18T15:46:42.888Z,29.80
2017-05-18T15:49:11.393Z,31.30
2017-05-18T15:51:39.952Z,29.20
2017-05-18T15:54:08.452Z,29.40
2017-05-18T15:56:36.955Z,30.20
2017-05-18T15:59:05.496Z,30.00
2017-05-18T16:01:34.017Z,29.20
2017-05-18T16:04:02.520Z,29.80
2017-05-18T16:06:31.062Z,29.80
2017-05-18T16:08:59.564Z,29.50
2017-05-18T16:11:28.062Z,30.00
2017-05-18T16:13:56.609Z,29.90
2017-05-18T16:16:25.118Z,30.40
2017-05-18T16:18:53.623Z,30.90
2017-05-18T16:21:22.160Z,31.60
2017-05-18T16:23:50.676Z,31.50
2017-05-18T16:26:19.177Z,31.70
2017-05-18T16:28:47.716Z,31.10
2017-05-18T16:31:16.217Z,31.50
2017-05-18T16:33:44.728Z,30.70
2017-05-18T16:36:13.277Z,31.60
2017-05-18T16:38:41.786Z,31.50
2017-05-18T16:41:10.284Z,32.10
2017-05-18T16:43:38.819Z,32.60
2017-05-18T16:46:07.412Z,33.10
2017-05-18T16:48:35.914Z,32.90
2017-05-18T16:51:04.455Z,32.80
2017-05-18T16:53:32.965Z,33.00
2017-05-18T16:56:01.476Z,32.30
2017-05-18T16:58:30.020Z,32.70
2017-05-18T17:00:58.534Z,32.90
2017-05-18T17:03:27.037Z,32.80
2017-05-18T17:05:55.587Z,33.50
2017-05-18T17:08:24.133Z,33.90
2017-05-18T17:10:52.637Z,34.00
2017-05-18T17:13:21.182Z,34.60
2017-05-18T17:15:49.688Z,34.70
2017-05-18T17:18:18.202Z,34.80
2017-05-18T17:20:46.295Z,34.80
2017-05-18T17:23:14.887Z,35.70
2017-05-18T17:25:43.389Z,36.10
2017-05-18T17:28:12.187Z,36.10
2017-05-18T17:30:40.690Z,36.60
2017-05-18T17:33:09.221Z,37.00
2017-05-18T17:35:37.784Z,37.10
2017-05-18T17:38:06.284Z,37.50
2017-05-18T17:40:34.784Z,38.10
2017-05-18T17:43:03.326Z,38.80
2017-05-18T17:45:31.833Z,38.70
2017-05-18T17:48:00.336Z,39.30
2017-05-18T17:50:28.918Z,40.20
2017-05-18T17:52:57.422Z,39.80
2017-05-18T17:55:25.936Z,40.00
2017-05-18T17:57:54.489Z,40.30
2017-05-18T18:00:22.991Z,40.30
2017-05-18T18:02:51.483Z,40.80
2017-05-18T18:05:20.027Z,41.40
2017-05-18T18:07:48.548Z,42.00
2017-05-18T18:10:17.169Z,42.50
2017-05-18T18:12:46.650Z,42.40
2017-05-18T18:15:15.152Z,42.40
2017-05-18T18:17:43.766Z,43.00
2017-05-18T18:20:12.328Z,43.60
2017-05-18T18:22:40.831Z,43.20
2017-05-18T18:25:09.388Z,43.60
2017-05-18T18:27:37.961Z,43.90
2017-05-18T18:30:06.466Z,44.10
2017-05-18T18:32:34.978Z,44.50
2017-05-18T18:35:03.530Z,44.70
2017-05-18T18:37:32.060Z,45.30
2017-05-18T18:40:00.584Z,46.00
2017-05-18T18:42:29.135Z,46.10
2017-05-18T18:44:57.644Z,46.50
2017-05-18T18:47:26.251Z,46.40
2017-05-18T18:49:54.794Z,46.70
2017-05-18T18:52:23.784Z,47.60
2017-05-18T18:54:52.297Z,47.70
2017-05-18T18:57:20.844Z,47.70
2017-05-18T18:59:49.352Z,47.80
2017-05-18T19:02:17.853Z,48.00
2017-05-18T19:04:46.408Z,48.50
2017-05-18T19:07:14.911Z,48.60
2017-05-18T19:09:43.414Z,48.90
2017-05-18T19:12:11.962Z,48.80
2017-05-18T19:14:40.472Z,49.30
2017-05-18T19:17:08.976Z,50.10
2017-05-18T19:19:37.521Z,50.60
2017-05-18T19:22:06.025Z,51.90
2017-05-18T19:24:34.541Z,52.00
2017-05-18T19:27:03.084Z,52.40
2017-05-18T19:29:31.593Z,53.10
2017-05-18T19:32:00.101Z,53.10
2017-05-18T19:34:28.647Z,53.30
2017-05-18T19:36:57.158Z,53.80
2017-05-18T19:39:25.663Z,54.40
2017-05-18T19:41:54.206Z,55.10
2017-05-18T19:44:22.717Z,55.00
2017-05-18T19:46:51.250Z,55.90
2017-05-18T19:49:19.797Z,55.90
2017-05-18T19:51:48.338Z,56.00
2017-05-18T19:54:16.848Z,56.80
2017-05-18T19:56:45.395Z,57.30
2017-05-18T19:59:13.901Z,57.80
2017-05-18T20:01:42.396Z,58.20
2017-05-18T20:04:10.944Z,58.50
2017-05-18T20:06:39.472Z,59.00
2017-05-18T20:09:07.982Z,59.70
2017-05-18T20:11:36.527Z,60.60
2017-05-18T20:14:05.023Z,61.10
2017-05-18T20:16:33.732Z,61.70
2017-05-18T20:19:02.278Z,63.00
2017-05-18T20:21:30.782Z,63.60
2017-05-18T20:23:59.284Z,64.60
2017-05-18T20:26:27.839Z,65.10
2017-05-18T20:28:56.358Z,66.00
2017-05-18T20:31:24.862Z,66.80
2017-05-18T20:33:53.414Z,68.40
2017-05-18T20:36:21.913Z,69.70
2017-05-18T20:38:50.416Z,70.90
2017-05-18T20:41:18.966Z,72.10
2017-05-18T20:43:47.472Z,73.50
2017-05-18T20:46:15.975Z,73.60
2017-05-18T20:48:44.517Z,75.10
2017-05-18T20:51:13.034Z,76.50
2017-05-18T20:53:41.540Z,77.80
2017-05-18T20:56:10.084Z,79.20
2017-05-18T20:58:38.593Z,80.50
2017-05-18T21:01:07.096Z,83.80
2017-05-18T21:03:35.641Z,84.20
2017-05-18T21:06:04.158Z,85.20
2017-05-18T21:08:32.683Z,87.30
2017-05-18T21:11:01.242Z,90.10
2017-05-18T21:13:29.749Z,91.00
2017-05-18T21:15:58.257Z,91.30
2017-05-18T21:18:26.806Z,92.00
2017-05-18T21:20:55.313Z,92.40
2017-05-18T21:23:23.817Z,93.00
2017-05-18T21:25:54.378Z,93.30
2017-05-18T21:28:23.036Z,93.50
2017-05-18T21:30:51.589Z,93.70
2017-05-18T21:33:20.129Z,94.30
2017-05-18T21:35:48.631Z,94.90
2017-05-18T21:38:17.138Z,95.00
2017-05-18T21:40:45.691Z,95.50
2017-05-18T21:43:14.195Z,95.80
2017-05-18T21:45:42.709Z,96.00
2017-05-18T21:48:11.251Z,96.20
2017-05-18T21:50:39.752Z,96.40
2017-05-18T21:53:08.261Z,96.50
2017-05-18T21:55:36.833Z,97.20
2017-05-18T21:58:05.335Z,97.20
2017-05-18T22:00:33.845Z,97.70
2017-05-18T22:03:02.389Z,97.10
2017-05-18T22:05:30.892Z,97.50
2017-05-18T22:07:59.389Z,97.80
2017-05-18T22:10:27.927Z,98.20
2017-05-18T22:12:56.430Z,98.30
2017-05-18T22:15:24.932Z,98.80
2017-05-18T22:17:53.493Z,99.30
2017-05-18T22:20:21.996Z,99.30
2017-05-18T22:22:50.508Z,99.20
2017-05-18T22:25:19.078Z,99.30
2017-05-18T22:27:47.575Z,99.90
2017-05-18T22:30:16.075Z,99.90
2017-05-18T22:32:44.639Z,99.90
2017-05-18T22:35:13.136Z,99.90
2017-05-18T22:37:41.652Z,99.90
2017-05-18T22:40:10.212Z,99.90
2017-05-18T22:42:38.773Z,99.90
2017-05-18T22:45:07.290Z,99.90
2017-05-18T22:47:35.861Z,99.90
2017-05-18T22:50:04.363Z,99.90
2017-05-18T22:52:32.865Z,99.90
2017-05-18T22:55:01.432Z,99.90
2017-05-18T22:57:29.937Z,99.90
2017-05-18T22:59:58.453Z,99.90
2017-05-18T23:02:27.029Z,99.90
2017-05-18T23:04:55.532Z,99.90
2017-05-18T23:07:24.037Z,99.90
2017-05-18T23:09:52.822Z,99.90
2017-05-18T23:12:21.321Z,99.90
2017-05-18T23:14:49.886Z,99.90
2017-05-18T23:17:18.441Z,99.90
2017-05-18T23:19:46.951Z,99.90
2017-05-18T23:22:15.461Z,99.90
2017-05-18T23:24:44.189Z,99.90
2017-05-18T23:27:12.697Z,99.90
2017-05-18T23:29:41.257Z,99.90
2017-05-18T23:32:09.801Z,99.90
2017-05-18T23:34:38.311Z,99.90
2017-05-18T23:37:06.826Z,99.90
2017-05-18T23:39:35.373Z,99.90
2017-05-18T23:42:03.880Z,99.90
2017-05-18T23:44:32.396Z,99.90
2017-05-18T23:47:00.945Z,99.90
2017-05-18T23:49:29.461Z,99.90
2017-05-18T23:51:57.973Z,99.90
2017-05-18T23:54:26.520Z,99.90
2017-05-18T23:56:55.029Z,99.90
2017-05-18T23:59:23.534Z,99.90
